Detroit, Michigan
Traffic Map
Current Weather Conditions
Detroit, Michigan
Overcast
Overcast
77°
Feels Like: 79°
Wind Chill: 77° Ceiling: 28000
Heat Index: 79° Visibility: 15mi
Dew Point: 55° Wind: 13mph
Humidity: 47% Direction: 30° (NNE)
Pressure: 30.05in Gusts: 0mph
Raw Report DataCYQG 311900Z 03011KT 15SM FEW048 OVC280 25/13 A3005 RMK CU1CS8 CU TR SLP174 DENSITY ALT 1800FT
Traffic Incident Summary
Active as of:
Severity:
Category:
InformationThere was an issue retrieving the traffic information for this location. Please try a different location or try again shortly.
Advertisements
Track Severe Weather on mobile